KCDR/CDR METAR and TAF weather

Enter ICAO airport designator
Station Type Date Time Source
KCDR METAR 2018/09/21 22:53 UTC NOAA

KCDR 212253Z AUTO 16012KT 10SM CLR 23/05 A3014 RMK AO2 SLP197 T02280050


Station Type Date Time Source
KCDR Decoded METAR 2018/09/21 22:53 UTC NOAA

CHADRON MUNICIPAL AIRPORT, NE, United States (KCDR) 42-50N 103-06W 1010M
Sep 21, 2018 - 06:53 PM EDT / 2018.09.21 2253 UTC
Wind: from the SSE (160 degrees) at 14 MPH (12 KT):0
Visibility: 10 mile(s):0
Sky conditions: clear
Temperature: 73.0 F (22.8 C)
Dew Point: 41.0 F (5.0 C)
Relative Humidity: 31%
Pressure (altimeter): 30.14 in. Hg (1020 hPa)
ob: KCDR 212253Z AUTO 16012KT 10SM CLR 23/05 A3014 RMK AO2 SLP197 T02280050
cycle: 23

Station Type Date Time Source
KCDR TAF 2018/09/21 18:24 UTC NOAA

TAF KCDR 211722Z 2118/2218 VRB04KT P6SM SKC
FM212000 14011KT P6SM SKC
FM220400 16024G34KT P6SM SKC
FM220900 20010KT P6SM SKC


Example: see airport list